createdAt,value
2018-04-28T03:27:06.686Z,4
2018-04-28T03:27:26.865Z,4
2018-04-28T03:27:47.053Z,8
2018-04-28T03:50:36.480Z,56
2018-04-28T04:14:41.520Z,308
2018-04-28T04:15:01.707Z,316
2018-04-28T04:15:21.891Z,320
2018-04-28T04:15:42.073Z,324
2018-04-28T04:16:02.262Z,328
2018-04-28T04:16:22.425Z,332
2018-04-28T04:16:42.608Z,336
2018-04-28T04:24:12.748Z,516
2018-04-28T04:24:32.911Z,524
2018-04-28T04:28:07.789Z,560
2018-04-28T04:28:27.959Z,556
2018-04-28T04:28:48.118Z,556
2018-04-28T04:29:08.305Z,560
2018-04-28T04:29:28.488Z,572
2018-04-28T04:29:48.634Z,576
2018-04-28T04:35:58.248Z,588
2018-04-28T04:36:18.436Z,604
2018-04-28T04:36:38.595Z,616
2018-04-28T04:36:58.760Z,624
2018-04-28T04:37:18.937Z,632
2018-04-28T04:37:39.182Z,644
2018-04-28T04:40:12.083Z,712
2018-04-28T04:40:32.248Z,708
2018-04-28T04:41:51.094Z,716
2018-04-28T04:42:11.300Z,708
2018-04-28T04:42:31.451Z,696
2018-04-28T04:42:51.644Z,684
2018-04-28T04:43:11.809Z,672
2018-04-28T04:43:31.975Z,668
2018-04-28T04:43:52.114Z,664
2018-04-28T04:44:12.330Z,660
2018-04-28T04:44:32.555Z,656
2018-04-28T04:44:52.715Z,652
2018-04-28T04:45:12.892Z,644
2018-04-28T04:45:33.092Z,640
2018-04-28T04:45:53.263Z,636
2018-04-28T04:49:29.356Z,664
2018-04-28T04:49:49.531Z,684
2018-04-28T04:50:09.707Z,700
2018-04-28T04:50:29.864Z,716
2018-04-28T04:50:50.022Z,736
2018-04-28T04:51:10.205Z,752
2018-04-28T04:51:30.371Z,768
2018-04-28T04:51:50.534Z,772
2018-04-28T04:52:10.697Z,772
2018-04-28T04:52:30.857Z,768
2018-04-28T04:52:51.034Z,764
2018-04-28T04:53:11.209Z,760
2018-04-28T04:53:31.359Z,756
2018-04-28T04:53:51.521Z,760
2018-04-28T04:54:11.685Z,768
2018-04-28T04:54:31.858Z,768
2018-04-28T04:54:52.027Z,764
2018-04-28T04:55:12.200Z,760
2018-04-28T04:55:32.372Z,744
2018-04-28T04:55:52.567Z,732
2018-04-28T04:56:12.743Z,716
2018-04-28T04:56:32.918Z,712
2018-04-28T04:56:53.083Z,708
2018-04-28T04:57:13.269Z,708
2018-04-28T04:57:33.479Z,716
2018-04-28T04:57:53.653Z,720
2018-04-28T04:58:13.850Z,736
2018-04-28T04:58:33.962Z,748
2018-04-28T04:58:54.143Z,760
2018-04-28T04:59:14.332Z,768
2018-04-28T04:59:34.483Z,776
2018-04-28T04:59:54.669Z,788
2018-04-28T05:00:14.817Z,792
2018-04-28T05:00:34.986Z,792
2018-04-28T05:00:55.154Z,792
2018-04-28T05:01:15.309Z,792
2018-04-28T05:01:35.503Z,792
2018-04-28T05:01:55.656Z,792
2018-04-28T05:02:15.834Z,796
2018-04-28T05:02:36.021Z,800
2018-04-28T05:02:56.192Z,812
2018-04-28T05:03:16.366Z,828
2018-04-28T05:03:36.555Z,844
2018-04-28T05:03:56.717Z,848
2018-04-28T05:04:16.893Z,856
2018-04-28T05:04:37.045Z,860
2018-04-28T05:04:57.203Z,868
2018-04-28T05:05:17.378Z,880
2018-04-28T05:05:37.550Z,896
2018-04-28T05:05:57.723Z,904
2018-04-28T05:06:17.908Z,916
2018-04-28T05:06:38.084Z,920
2018-04-28T05:06:58.257Z,920
2018-04-28T05:07:18.431Z,916
2018-04-28T05:07:38.598Z,916
2018-04-28T05:07:58.770Z,912
2018-04-28T05:08:18.942Z,908
2018-04-28T05:08:39.115Z,904
2018-04-28T05:08:59.290Z,896
2018-04-28T05:09:19.424Z,888
2018-04-28T05:09:39.616Z,876
2018-04-28T05:09:59.793Z,872
2018-04-28T05:10:19.959Z,864
2018-04-28T05:10:40.152Z,856
2018-04-28T05:11:00.321Z,856
2018-04-28T05:11:20.500Z,856
2018-04-28T05:11:40.685Z,864
2018-04-28T05:12:00.855Z,868
2018-04-28T05:12:21.018Z,872
2018-04-28T05:12:41.206Z,880
2018-04-28T05:13:01.384Z,880
2018-04-28T05:13:21.525Z,880
2018-04-28T05:13:41.691Z,876
2018-04-28T05:14:01.870Z,888
2018-04-28T05:14:22.072Z,896
2018-04-28T05:14:42.247Z,896
2018-04-28T05:15:02.435Z,900
2018-04-28T05:15:22.609Z,884
2018-04-28T05:15:42.777Z,880
2018-04-28T05:16:02.929Z,884
2018-04-28T05:16:23.124Z,888
2018-04-28T05:16:43.300Z,896
2018-04-28T05:17:03.477Z,904
2018-04-28T05:17:23.660Z,928
2018-04-28T05:17:43.844Z,944
2018-04-28T05:18:04.026Z,952
2018-04-28T05:18:24.191Z,952
2018-04-28T05:18:44.351Z,956
2018-04-28T05:19:04.593Z,956
2018-04-28T05:19:24.702Z,968
2018-04-28T05:19:44.866Z,972
2018-04-28T05:20:05.053Z,976
2018-04-28T05:20:25.231Z,984
2018-04-28T05:20:45.426Z,984
2018-04-28T05:21:05.621Z,984
2018-04-28T05:21:25.799Z,988
2018-04-28T05:21:45.972Z,1008
2018-04-28T05:22:06.158Z,1016
2018-04-28T05:22:26.340Z,1024
2018-04-28T05:22:46.532Z,1032
2018-04-28T05:23:06.708Z,1048
2018-04-28T05:23:26.891Z,1044
2018-04-28T05:23:47.079Z,1048
2018-04-28T05:24:07.245Z,1056
2018-04-28T05:24:27.421Z,1068
2018-04-28T05:24:47.613Z,1072
2018-04-28T05:25:07.805Z,1072
2018-04-28T05:25:27.986Z,1080
2018-04-28T05:25:48.171Z,1092
2018-04-28T05:26:08.351Z,1092
2018-04-28T05:26:28.588Z,1096
2018-04-28T05:26:48.769Z,1092
2018-04-28T05:27:08.976Z,1084
2018-04-28T05:27:29.159Z,1088
2018-04-28T05:27:49.339Z,1088
2018-04-28T05:28:09.548Z,1088
2018-04-28T05:28:29.694Z,1084
2018-04-28T05:28:49.867Z,1084
2018-04-28T05:29:10.032Z,1076
2018-04-28T05:29:30.205Z,1056
2018-04-28T05:29:50.353Z,1048
2018-04-28T05:30:10.566Z,1052
2018-04-28T05:30:30.742Z,1048
2018-04-28T05:30:50.937Z,1036
2018-04-28T05:31:11.145Z,1024
2018-04-28T05:31:31.315Z,1008
2018-04-28T05:31:51.520Z,992
2018-04-28T05:32:11.709Z,984
2018-04-28T05:32:31.923Z,976
2018-04-28T05:32:52.091Z,980
2018-04-28T05:33:12.267Z,984
2018-04-28T05:33:32.447Z,996
2018-04-28T05:33:52.619Z,1008
2018-04-28T05:34:12.803Z,1012
2018-04-28T05:34:32.992Z,1012
2018-04-28T05:34:53.174Z,1020
2018-04-28T05:35:13.336Z,1028
2018-04-28T05:35:33.502Z,1028
2018-04-28T05:35:53.758Z,1036
2018-04-28T05:36:13.872Z,1032
2018-04-28T05:36:34.047Z,1020
2018-04-28T05:36:54.217Z,1016
2018-04-28T05:37:14.445Z,1012
2018-04-28T05:37:34.594Z,1004
2018-04-28T05:37:54.777Z,992
2018-04-28T05:38:14.941Z,984
2018-04-28T05:38:35.085Z,992
2018-04-28T05:38:55.286Z,992
2018-04-28T05:39:15.466Z,1004
2018-04-28T05:39:35.615Z,1008
2018-04-28T05:39:55.804Z,1012
2018-04-28T05:40:15.987Z,1016
2018-04-28T05:40:36.163Z,1024
2018-04-28T05:40:56.340Z,1028
2018-04-28T05:41:16.511Z,1032
2018-04-28T05:41:36.678Z,1048
2018-04-28T05:41:56.865Z,1064
2018-04-28T05:42:17.057Z,1072
2018-04-28T05:42:37.251Z,1072
2018-04-28T05:42:57.411Z,1088
2018-04-28T05:43:17.602Z,1096
2018-04-28T05:43:37.737Z,1092
2018-04-28T05:43:57.919Z,1088
2018-04-28T05:44:18.120Z,1080
2018-04-28T05:44:38.304Z,1068
2018-04-28T05:44:58.485Z,1056
2018-04-28T05:45:18.671Z,1040
2018-04-28T05:45:38.852Z,1012
2018-04-28T05:45:59.024Z,1008
2018-04-28T05:46:19.213Z,980
2018-04-28T05:46:39.358Z,952
2018-04-28T05:46:59.515Z,936
2018-04-28T05:47:19.716Z,916
2018-04-28T05:47:39.896Z,900
2018-04-28T05:48:00.077Z,880
2018-04-28T05:48:20.290Z,864
2018-04-28T05:48:40.479Z,852
2018-04-28T05:49:00.651Z,840
2018-04-28T05:49:20.824Z,836
2018-04-28T05:49:40.997Z,840
2018-04-28T05:50:01.173Z,840
2018-04-28T05:50:21.341Z,844
2018-04-28T05:50:41.512Z,844
2018-04-28T05:51:01.704Z,844
2018-04-28T05:51:21.879Z,844
2018-04-28T05:51:42.055Z,856
2018-04-28T05:52:02.221Z,860
2018-04-28T05:52:22.396Z,860
2018-04-28T05:52:42.584Z,852
2018-04-28T05:53:02.763Z,852
2018-04-28T05:53:22.946Z,848
2018-04-28T05:53:43.112Z,852
2018-04-28T05:54:03.305Z,852
2018-04-28T05:54:23.477Z,852
2018-04-28T05:54:43.680Z,852
2018-04-28T05:55:03.842Z,852
2018-04-28T05:55:24.019Z,852
2018-04-28T05:55:44.202Z,856
2018-04-28T05:56:04.380Z,860
2018-04-28T05:56:24.541Z,860
2018-04-28T05:56:44.747Z,860
2018-04-28T05:57:04.924Z,852
2018-04-28T05:57:25.133Z,844
2018-04-28T05:57:45.312Z,840
2018-04-28T05:58:05.480Z,836
2018-04-28T05:58:25.671Z,836
2018-04-28T05:58:45.853Z,844
2018-04-28T05:59:06.044Z,848
2018-04-28T05:59:26.216Z,848
2018-04-28T05:59:46.412Z,852
2018-04-28T06:00:06.596Z,852
2018-04-28T06:00:26.753Z,852
2018-04-28T06:00:46.965Z,852
2018-04-28T06:01:07.147Z,844
2018-04-28T06:01:27.306Z,840
2018-04-28T06:01:47.479Z,836
2018-04-28T06:02:07.641Z,832
2018-04-28T06:02:27.828Z,832
2018-04-28T06:02:48.009Z,832
2018-04-28T06:03:08.171Z,836
2018-04-28T06:03:28.356Z,844
2018-04-28T06:03:48.574Z,848
2018-04-28T06:04:08.751Z,860
2018-04-28T06:04:28.908Z,860
2018-04-28T06:04:49.097Z,860
2018-04-28T06:05:09.280Z,868
2018-04-28T06:05:29.462Z,880
2018-04-28T06:05:49.650Z,888
2018-04-28T06:06:09.846Z,892
2018-04-28T06:06:30.013Z,892
2018-04-28T06:06:50.173Z,888
2018-04-28T06:07:10.340Z,904
2018-04-28T06:07:30.556Z,912
2018-04-28T06:07:50.711Z,932
2018-04-28T06:08:10.875Z,944
2018-04-28T06:08:31.050Z,956
2018-04-28T06:08:51.216Z,960
2018-04-28T06:09:11.403Z,980
2018-04-28T06:09:31.553Z,996
2018-04-28T06:09:51.730Z,1008
2018-04-28T06:10:11.952Z,1012
2018-04-28T06:10:32.114Z,1024
2018-04-28T06:10:52.293Z,1032
2018-04-28T06:11:12.478Z,1028
2018-04-28T06:11:32.666Z,1024
2018-04-28T06:11:52.844Z,1012
2018-04-28T06:12:13.030Z,1008
2018-04-28T06:12:33.216Z,1016
2018-04-28T06:12:53.403Z,1036
2018-04-28T06:13:13.583Z,1060
2018-04-28T06:13:33.749Z,1076
2018-04-28T06:13:53.914Z,1088
2018-04-28T06:14:14.140Z,1080
2018-04-28T06:14:34.288Z,1088
2018-04-28T06:14:54.456Z,1088
2018-04-28T06:15:14.637Z,1084
2018-04-28T06:15:34.809Z,1080
2018-04-28T06:15:54.972Z,1076
2018-04-28T06:16:15.126Z,1076
2018-04-28T06:16:35.294Z,1064
2018-04-28T06:16:55.448Z,1048
2018-04-28T06:17:15.626Z,1036
2018-04-28T06:17:35.789Z,1012
2018-04-28T06:17:56.055Z,980
2018-04-28T06:18:16.232Z,968
2018-04-28T06:18:36.407Z,984
2018-04-28T06:18:56.592Z,1004
2018-04-28T06:19:16.779Z,1008
2018-04-28T06:19:36.964Z,1028
2018-04-28T06:19:57.234Z,1048
2018-04-28T06:20:17.728Z,1068
2018-04-28T06:20:37.846Z,1096
2018-04-28T06:20:58.032Z,1144
2018-04-28T06:21:18.220Z,1188
2018-04-28T06:21:38.396Z,1228
2018-04-28T06:21:58.592Z,1260
2018-04-28T06:22:18.748Z,1272
2018-04-28T06:22:38.934Z,1292
2018-04-28T06:22:59.089Z,1320
2018-04-28T06:23:19.242Z,1332
2018-04-28T06:23:39.417Z,1336
2018-04-28T06:23:59.597Z,1332
2018-04-28T06:24:20.785Z,1332
2018-04-28T06:24:41.328Z,1328
2018-04-28T06:25:01.510Z,1340
2018-04-28T06:25:21.689Z,1388
2018-04-28T06:25:41.863Z,1408
2018-04-28T06:26:02.112Z,1408
2018-04-28T06:26:22.216Z,1416
2018-04-28T06:26:42.397Z,1420
2018-04-28T06:27:02.572Z,1416
2018-04-28T06:27:22.738Z,1416
2018-04-28T06:27:42.924Z,1408
2018-04-28T06:28:03.118Z,1400
2018-04-28T06:28:23.292Z,1384
2018-04-28T06:28:43.484Z,1364
2018-04-28T06:29:03.689Z,1348
2018-04-28T06:29:23.858Z,1344
2018-04-28T06:29:44.034Z,1324
2018-04-28T06:30:04.173Z,1300
2018-04-28T06:30:24.328Z,1272
2018-04-28T06:30:44.523Z,1244
2018-04-28T06:31:04.683Z,1228
2018-04-28T06:31:24.885Z,1212
2018-04-28T06:31:45.074Z,1200
2018-04-28T06:32:05.242Z,1196
2018-04-28T06:32:25.419Z,1212
2018-04-28T06:32:45.585Z,1220
2018-04-28T06:33:05.761Z,1224
2018-04-28T06:33:25.930Z,1212
2018-04-28T06:33:46.102Z,1208
2018-04-28T06:34:06.270Z,1200
2018-04-28T06:34:26.451Z,1188
2018-04-28T06:34:46.631Z,1184
2018-04-28T06:35:06.798Z,1184
2018-04-28T06:35:26.966Z,1180
2018-04-28T06:35:47.181Z,1176
2018-04-28T06:36:07.329Z,1176
2018-04-28T06:36:27.491Z,1180
2018-04-28T06:36:47.665Z,1184
2018-04-28T06:37:07.827Z,1184
2018-04-28T06:37:28.006Z,1200
2018-04-28T06:37:48.211Z,1212
2018-04-28T06:38:08.433Z,1216
2018-04-28T06:38:28.638Z,1204
2018-04-28T06:38:48.913Z,1208
2018-04-28T06:39:09.110Z,1200
2018-04-28T06:39:29.262Z,1188
2018-04-28T06:39:49.445Z,1172
2018-04-28T06:40:09.618Z,1152
2018-04-28T06:40:29.823Z,1148
2018-04-28T06:40:49.998Z,1152
2018-04-28T06:41:10.229Z,1160
2018-04-28T06:41:30.357Z,1172
2018-04-28T06:41:50.534Z,1168
2018-04-28T06:42:10.714Z,1168
2018-04-28T06:42:30.875Z,1180
2018-04-28T06:42:51.351Z,1196
2018-04-28T06:43:14.381Z,1204
2018-04-28T06:43:35.061Z,1212
2018-04-28T06:43:55.293Z,1204
2018-04-28T06:44:15.578Z,1220
2018-04-28T06:44:35.758Z,1224
2018-04-28T06:44:55.941Z,1240
2018-04-28T06:45:16.126Z,1256
2018-04-28T06:45:36.333Z,1276
2018-04-28T06:45:56.528Z,1292
2018-04-28T06:46:16.728Z,1296
2018-04-28T06:46:36.935Z,1288
2018-04-28T06:46:57.100Z,1272
2018-04-28T06:47:17.497Z,1260
2018-04-28T06:47:37.703Z,1248
2018-04-28T06:47:57.940Z,1236
2018-04-28T06:48:18.091Z,1240
2018-04-28T06:48:38.419Z,1232
2018-04-28T06:48:59.569Z,1228
2018-04-28T06:49:19.828Z,1224
2018-04-28T06:49:40.027Z,1200
2018-04-28T06:50:00.236Z,1184
2018-04-28T06:50:20.454Z,1172
2018-04-28T06:50:41.185Z,1168
2018-04-28T06:51:01.556Z,1160
2018-04-28T06:51:21.669Z,1160
2018-04-28T06:51:41.862Z,1148
2018-04-28T06:52:02.054Z,1144
2018-04-28T06:52:22.296Z,1128
2018-04-28T06:52:42.538Z,1112
2018-04-28T06:53:04.426Z,1096
2018-04-28T06:53:24.741Z,1076
2018-04-28T06:53:45.012Z,1076
2018-04-28T06:54:05.202Z,1064
2018-04-28T06:54:25.519Z,1064
2018-04-28T06:54:45.721Z,1072
2018-04-28T06:55:05.980Z,1064
2018-04-28T06:55:26.241Z,1072
2018-04-28T06:55:46.550Z,1068
2018-04-28T06:56:06.854Z,1056
2018-04-28T06:56:27.289Z,1028
2018-04-28T06:56:47.524Z,1008
2018-04-28T06:57:07.981Z,992
2018-04-28T06:57:28.259Z,984
2018-04-28T06:57:48.468Z,964
2018-04-28T06:58:08.734Z,940
2018-04-28T06:58:29.386Z,920
2018-04-28T06:58:49.874Z,916
2018-04-28T06:59:10.221Z,912
2018-04-28T06:59:30.429Z,868
2018-04-28T06:59:50.639Z,836
2018-04-28T07:00:10.993Z,828
2018-04-28T07:00:31.426Z,824
2018-04-28T07:00:51.761Z,836
2018-04-28T07:01:12.028Z,824
2018-04-28T07:01:32.992Z,828
2018-04-28T07:01:53.425Z,856
2018-04-28T07:02:13.601Z,848
2018-04-28T07:02:34.009Z,824
2018-04-28T07:02:54.232Z,808
2018-04-28T07:03:15.446Z,800
2018-04-28T07:03:35.909Z,816
2018-04-28T07:03:56.432Z,840
2018-04-28T07:04:16.670Z,864
2018-04-28T07:04:37.120Z,904
2018-04-28T07:04:57.274Z,912
2018-04-28T07:05:17.486Z,932
2018-04-28T07:05:38.360Z,952
2018-04-28T07:05:59.533Z,952
2018-04-28T07:06:19.955Z,960
2018-04-28T07:06:40.168Z,968
2018-04-28T07:07:01.488Z,996
2018-04-28T07:07:22.407Z,1020
2018-04-28T07:07:43.349Z,1024
2018-04-28T07:08:06.003Z,1020
2018-04-28T07:08:26.452Z,996
2018-04-28T07:08:47.483Z,960
2018-04-28T07:09:07.816Z,932
2018-04-28T07:09:28.143Z,904
2018-04-28T07:09:48.459Z,880
2018-04-28T07:10:08.956Z,848
2018-04-28T07:10:29.225Z,820
2018-04-28T07:10:49.709Z,812
2018-04-28T07:11:09.847Z,804
2018-04-28T07:11:31.980Z,792
2018-04-28T07:11:52.284Z,784
2018-04-28T07:12:12.461Z,788
2018-04-28T07:12:32.689Z,788
2018-04-28T07:12:52.909Z,788
2018-04-28T07:13:13.169Z,784
2018-04-28T07:13:33.525Z,788
2018-04-28T07:13:53.769Z,800
2018-04-28T07:14:13.967Z,808
2018-04-28T07:14:34.168Z,816
2018-04-28T07:14:54.536Z,824
2018-04-28T07:15:14.795Z,836
2018-04-28T07:15:35.031Z,844
2018-04-28T07:15:55.218Z,848
2018-04-28T07:16:15.406Z,860
2018-04-28T07:16:35.675Z,872
2018-04-28T07:16:55.860Z,872
2018-04-28T07:17:16.143Z,880
2018-04-28T07:17:36.338Z,880
2018-04-28T07:17:56.684Z,868
2018-04-28T07:18:16.952Z,856
2018-04-28T07:18:37.378Z,852
2018-04-28T07:18:57.864Z,844
2018-04-28T07:19:18.199Z,844
2018-04-28T07:19:38.480Z,840
2018-04-28T07:19:58.707Z,848
2018-04-28T07:20:18.959Z,860
2018-04-28T07:20:39.274Z,864
2018-04-28T07:21:00.469Z,876
2018-04-28T07:21:20.806Z,872
2018-04-28T07:21:41.160Z,868
2018-04-28T07:22:01.558Z,864
2018-04-28T07:22:21.762Z,852
2018-04-28T07:22:42.143Z,844
2018-04-28T07:23:02.576Z,856
2018-04-28T07:23:22.809Z,884
2018-04-28T07:23:43.914Z,904
2018-04-28T07:24:04.185Z,920
2018-04-28T07:24:24.652Z,924
2018-04-28T07:24:45.151Z,920
2018-04-28T07:25:05.431Z,916
2018-04-28T07:25:25.659Z,908
2018-04-28T07:25:45.952Z,904
2018-04-28T07:26:06.889Z,900
2018-04-28T07:26:27.071Z,900
2018-04-28T07:26:48.482Z,880
2018-04-28T07:27:08.676Z,880
2018-04-28T07:27:29.068Z,872
2018-04-28T07:27:49.428Z,860
2018-04-28T07:28:09.790Z,844
2018-04-28T07:28:30.010Z,844
2018-04-28T07:28:50.358Z,848
2018-04-28T07:29:10.616Z,852
2018-04-28T07:29:30.941Z,860
2018-04-28T07:29:51.317Z,872
2018-04-28T07:30:11.703Z,880
2018-04-28T07:30:31.901Z,884
2018-04-28T07:30:52.952Z,888
2018-04-28T07:31:13.306Z,888
2018-04-28T07:31:33.645Z,884
2018-04-28T07:31:53.914Z,880
2018-04-28T07:32:14.091Z,880
2018-04-28T07:32:34.294Z,880
2018-04-28T07:32:54.631Z,876
2018-04-28T07:33:14.912Z,884
2018-04-28T07:33:35.097Z,876
2018-04-28T07:33:55.344Z,876
2018-04-28T07:34:15.541Z,876
2018-04-28T07:34:35.759Z,876
2018-04-28T07:34:56.008Z,880
2018-04-28T07:35:16.335Z,884
2018-04-28T07:35:36.535Z,880
2018-04-28T07:35:56.745Z,880
2018-04-28T07:36:17.071Z,880
2018-04-28T07:36:37.265Z,872
2018-04-28T07:36:58.405Z,872
2018-04-28T07:37:19.034Z,868
2018-04-28T07:37:39.270Z,860
2018-04-28T07:37:59.580Z,840
2018-04-28T07:38:19.813Z,836
2018-04-28T07:38:40.031Z,836
2018-04-28T07:39:00.299Z,836
2018-04-28T07:39:20.541Z,836
2018-04-28T07:39:40.557Z,840
2018-04-28T07:40:00.739Z,836
2018-04-28T07:40:21.967Z,836
2018-04-28T07:40:43.164Z,836
2018-04-28T07:41:03.372Z,840
2018-04-28T07:41:23.557Z,832
2018-04-28T07:41:43.792Z,836
2018-04-28T07:42:03.960Z,840
2018-04-28T07:42:24.342Z,856
2018-04-28T07:42:44.457Z,852
2018-04-28T07:43:04.633Z,848
2018-04-28T07:43:24.838Z,852
2018-04-28T07:43:45.224Z,852
2018-04-28T07:44:05.437Z,856
2018-04-28T07:44:25.656Z,852
2018-04-28T07:44:45.981Z,852
2018-04-28T07:45:06.203Z,848
2018-04-28T07:45:26.489Z,836
2018-04-28T07:45:46.684Z,820
2018-04-28T07:46:06.913Z,812
2018-04-28T07:46:28.502Z,820
2018-04-28T07:46:48.754Z,808
2018-04-28T07:47:09.356Z,796
2018-04-28T07:47:29.578Z,764
2018-04-28T07:47:49.863Z,756
2018-04-28T07:48:10.915Z,748
2018-04-28T07:48:31.366Z,732
2018-04-28T07:48:51.850Z,748
2018-04-28T07:49:12.064Z,756
2018-04-28T07:49:33.023Z,760
2018-04-28T07:49:53.195Z,772
2018-04-28T07:50:13.390Z,764
2018-04-28T07:50:33.958Z,784
2018-04-28T07:50:55.028Z,776
2018-04-28T07:51:15.562Z,768
2018-04-28T07:51:35.888Z,804
2018-04-28T07:51:56.196Z,816
2018-04-28T07:52:16.387Z,804
2018-04-28T07:52:36.562Z,808
2018-04-28T07:52:56.770Z,820
2018-04-28T07:53:17.033Z,812
2018-04-28T07:53:37.233Z,832
2018-04-28T07:53:57.504Z,844
2018-04-28T07:54:17.713Z,856
2018-04-28T07:54:37.980Z,856
2018-04-28T07:54:58.857Z,852
2018-04-28T07:55:19.035Z,840
2018-04-28T07:55:39.258Z,816
2018-04-28T07:55:59.438Z,812
2018-04-28T07:56:19.593Z,808
2018-04-28T07:56:39.860Z,796
2018-04-28T07:57:00.105Z,816
2018-04-28T07:57:20.306Z,824
2018-04-28T07:57:40.477Z,824
2018-04-28T07:58:00.634Z,828
2018-04-28T07:58:20.840Z,840
2018-04-28T07:58:41.093Z,856
2018-04-28T07:59:15.913Z,864
2018-04-28T07:59:38.007Z,872
2018-04-28T07:59:59.547Z,864
2018-04-28T08:00:19.776Z,868
2018-04-28T08:00:40.079Z,884
2018-04-28T08:01:00.571Z,892
2018-04-28T08:01:20.860Z,884
2018-04-28T08:01:41.140Z,888
2018-04-28T08:02:01.392Z,872
2018-04-28T08:02:21.582Z,848
2018-04-28T08:02:41.794Z,848
2018-04-28T08:03:02.503Z,836
2018-04-28T08:03:22.890Z,844
2018-04-28T08:03:43.045Z,840
2018-04-28T08:04:03.391Z,848
2018-04-28T08:04:23.647Z,848
2018-04-28T08:04:43.815Z,856
2018-04-28T08:05:04.140Z,876
2018-04-28T08:05:24.303Z,884
2018-04-28T08:05:44.462Z,888
2018-04-28T08:06:04.645Z,896
2018-04-28T08:06:24.832Z,896
2018-04-28T08:06:45.090Z,896
2018-04-28T08:07:05.304Z,900
2018-04-28T08:07:25.754Z,900
2018-04-28T08:07:45.995Z,900
2018-04-28T08:08:06.222Z,900
2018-04-28T08:08:26.436Z,900
2018-04-28T08:08:46.607Z,904
2018-04-28T08:09:06.790Z,908
2018-04-28T08:09:26.976Z,912
2018-04-28T08:09:47.383Z,916
2018-04-28T08:10:07.631Z,916
2018-04-28T08:10:27.847Z,884
2018-04-28T08:10:48.005Z,892
2018-04-28T08:11:08.179Z,900
2018-04-28T08:11:28.394Z,888
2018-04-28T08:11:48.585Z,888
2018-04-28T08:12:08.810Z,900
2018-04-28T08:12:28.989Z,888
2018-04-28T08:12:49.227Z,916
2018-04-28T08:13:09.519Z,928
2018-04-28T08:13:29.797Z,924
2018-04-28T08:13:49.963Z,932
2018-04-28T08:14:10.216Z,932
2018-04-28T08:14:30.404Z,928
2018-04-28T08:14:50.602Z,932
2018-04-28T08:15:10.877Z,948
2018-04-28T08:15:30.962Z,948
2018-04-28T08:15:51.156Z,948
2018-04-28T08:16:11.690Z,952
2018-04-28T08:16:31.842Z,960
2018-04-28T08:16:52.257Z,968
2018-04-28T08:17:15.445Z,980
2018-04-28T08:17:35.722Z,984
2018-04-28T08:17:55.963Z,992
2018-04-28T08:18:16.543Z,1016
2018-04-28T08:18:36.995Z,1016
2018-04-28T08:18:57.499Z,1008
2018-04-28T08:19:17.729Z,1008
2018-04-28T08:19:37.960Z,1008
2018-04-28T08:19:58.179Z,1036
2018-04-28T08:20:18.369Z,1048
2018-04-28T08:20:38.764Z,1064
2018-04-28T08:20:59.079Z,1060
2018-04-28T08:21:19.273Z,1048
2018-04-28T08:21:40.441Z,1084
2018-04-28T08:22:00.637Z,1080
2018-04-28T08:22:20.886Z,1080
2018-04-28T08:22:41.083Z,1076
2018-04-28T08:23:01.319Z,1084
2018-04-28T08:23:21.494Z,1076
2018-04-28T08:23:41.663Z,1056
2018-04-28T08:24:01.847Z,1064
2018-04-28T08:24:22.049Z,1076
2018-04-28T08:24:42.225Z,1076
2018-04-28T08:25:02.382Z,1084
2018-04-28T08:25:22.561Z,1088
2018-04-28T08:25:42.804Z,1100
2018-04-28T08:26:02.987Z,1076
2018-04-28T08:26:23.238Z,1096
2018-04-28T08:26:43.441Z,1108
2018-04-28T08:27:03.628Z,1132
2018-04-28T08:27:23.808Z,1156
2018-04-28T08:27:44.039Z,1168
2018-04-28T08:28:04.270Z,1200
2018-04-28T08:28:24.482Z,1224
2018-04-28T08:28:44.705Z,1232
2018-04-28T08:29:04.895Z,1236
2018-04-28T08:29:25.060Z,1240
2018-04-28T08:29:45.245Z,1244
2018-04-28T08:30:05.514Z,1252
2018-04-28T08:30:25.722Z,1256
2018-04-28T08:30:45.911Z,1256
2018-04-28T08:31:06.082Z,1252
2018-04-28T08:31:26.290Z,1240
2018-04-28T08:31:46.504Z,1224
2018-04-28T08:32:06.695Z,1208
2018-04-28T08:32:26.872Z,1192
2018-04-28T08:32:47.044Z,1180
2018-04-28T08:33:07.248Z,1168
2018-04-28T08:33:27.460Z,1156
2018-04-28T08:33:47.677Z,1148
2018-04-28T08:34:07.864Z,1140
2018-04-28T08:34:28.112Z,1124
2018-04-28T08:34:48.336Z,1104
2018-04-28T08:35:08.624Z,1084
2018-04-28T08:35:28.861Z,1064
2018-04-28T08:35:49.045Z,1048
2018-04-28T08:36:09.239Z,1044
2018-04-28T08:36:29.449Z,1068
2018-04-28T08:36:49.650Z,1068
2018-04-28T08:37:09.838Z,1056
2018-04-28T08:37:30.003Z,1036
2018-04-28T08:37:50.166Z,1032
2018-04-28T08:38:10.379Z,1012
2018-04-28T08:38:30.595Z,972
2018-04-28T08:38:50.774Z,964
2018-04-28T08:39:10.988Z,960
2018-04-28T08:39:31.162Z,952
2018-04-28T08:39:51.324Z,940
2018-04-28T08:40:11.497Z,996
2018-04-28T08:40:31.770Z,996
2018-04-28T08:40:51.935Z,992
2018-04-28T08:41:12.180Z,984
2018-04-28T08:41:32.401Z,980
2018-04-28T08:41:52.610Z,976
2018-04-28T08:42:12.805Z,980
2018-04-28T08:42:33.987Z,1004
2018-04-28T08:42:54.216Z,1020
2018-04-28T08:43:14.593Z,1020
2018-04-28T08:43:34.824Z,1020
2018-04-28T08:43:55.091Z,1028
2018-04-28T08:44:15.243Z,1044
2018-04-28T08:44:35.477Z,1068
2018-04-28T08:44:56.534Z,1108
2018-04-28T08:45:16.881Z,1144
2018-04-28T08:45:38.517Z,1208
2018-04-28T08:45:59.005Z,1276
2018-04-28T08:46:19.979Z,1300
2018-04-28T08:46:40.469Z,1320
2018-04-28T08:47:00.839Z,1292
2018-04-28T08:47:21.173Z,1240
2018-04-28T08:47:41.528Z,1180
2018-04-28T08:48:01.954Z,1128
2018-04-28T08:48:22.473Z,1076
2018-04-28T08:48:43.560Z,1028
2018-04-28T08:49:04.529Z,1040
2018-04-28T08:49:24.737Z,1028
2018-04-28T08:49:44.952Z,1052
2018-04-28T08:50:05.260Z,1060
2018-04-28T08:50:25.480Z,1064
2018-04-28T08:50:45.943Z,1068
2018-04-28T08:51:06.564Z,1064
2018-04-28T08:51:27.589Z,1060
2018-04-28T08:51:47.635Z,1060
2018-04-28T08:52:07.936Z,1056
2018-04-28T08:52:28.136Z,1056
2018-04-28T08:52:48.463Z,1060
2018-04-28T08:53:08.745Z,1056
2018-04-28T08:53:29.055Z,1056
2018-04-28T08:53:49.192Z,1060
2018-04-28T08:54:09.406Z,1064
2018-04-28T08:54:29.744Z,1064
2018-04-28T08:54:49.926Z,1076
2018-04-28T08:55:10.113Z,1092
2018-04-28T08:55:30.346Z,1096
2018-04-28T08:55:50.516Z,1100
2018-04-28T08:56:10.687Z,1100
2018-04-28T08:56:30.913Z,1104
2018-04-28T08:56:51.111Z,1112
2018-04-28T08:57:11.293Z,1120
2018-04-28T08:57:31.495Z,1128
2018-04-28T08:57:51.664Z,1128
2018-04-28T08:58:12.279Z,1132
2018-04-28T08:58:32.713Z,1144
2018-04-28T08:58:53.198Z,1164
2018-04-28T08:59:13.356Z,1192
2018-04-28T08:59:33.559Z,1204
2018-04-28T08:59:53.821Z,1212
2018-04-28T09:00:14.161Z,1228
2018-04-28T09:00:34.345Z,1248
2018-04-28T09:00:54.517Z,1256
2018-04-28T09:01:14.759Z,1264
2018-04-28T09:01:34.943Z,1276
2018-04-28T09:01:55.107Z,1292
2018-04-28T09:02:15.332Z,1316
2018-04-28T09:02:35.446Z,1340
2018-04-28T09:02:55.601Z,1368
2018-04-28T09:03:15.839Z,1392
2018-04-28T09:03:36.028Z,1400
2018-04-28T09:03:56.241Z,1396
2018-04-28T09:04:16.396Z,1364
2018-04-28T09:04:36.570Z,1348
2018-04-28T09:04:56.732Z,1348
2018-04-28T09:05:17.027Z,1340
2018-04-28T09:05:37.206Z,1360
2018-04-28T09:05:57.392Z,1376
2018-04-28T09:06:17.578Z,1392
2018-04-28T09:06:37.906Z,1392
2018-04-28T09:06:58.115Z,1376
2018-04-28T09:07:18.282Z,1376
2018-04-28T09:07:38.536Z,1372
2018-04-28T09:07:58.795Z,1344
2018-04-28T09:08:18.984Z,1292
2018-04-28T09:08:39.163Z,1268
2018-04-28T09:08:59.361Z,1252
2018-04-28T09:09:19.552Z,1248
2018-04-28T09:09:39.780Z,1216
2018-04-28T09:10:00.112Z,1196
2018-04-28T09:10:20.404Z,1220
2018-04-28T09:10:40.666Z,1216
2018-04-28T09:11:00.914Z,1192
2018-04-28T09:11:21.589Z,1212